createdAt,value
2018-08-09T00:00:32.193Z,25.10
2018-08-09T00:03:00.446Z,25.10
2018-08-09T00:05:29.513Z,25.20
2018-08-09T00:07:57.737Z,25.20
2018-08-09T00:10:26.005Z,25.40
2018-08-09T00:12:54.258Z,25.20
2018-08-09T00:15:23.277Z,25.00
2018-08-09T00:17:51.521Z,25.00
2018-08-09T00:20:20.538Z,24.80
2018-08-09T00:22:48.790Z,24.80
2018-08-09T00:25:17.809Z,25.10
2018-08-09T00:27:46.082Z,25.00
2018-08-09T00:30:14.323Z,25.10
2018-08-09T00:32:42.572Z,24.90
2018-08-09T00:35:10.835Z,24.70
2018-08-09T00:37:39.086Z,24.60
2018-08-09T00:40:07.350Z,24.50
2018-08-09T00:42:35.610Z,24.40
2018-08-09T00:45:04.642Z,24.40
2018-08-09T00:47:32.911Z,24.40
2018-08-09T00:50:01.154Z,24.60
2018-08-09T00:52:30.191Z,24.90
2018-08-09T00:54:58.434Z,24.90
2018-08-09T00:57:26.697Z,24.70
2018-08-09T00:59:55.709Z,24.40
2018-08-09T01:02:24.308Z,24.40
2018-08-09T01:04:52.546Z,24.40
2018-08-09T01:07:21.570Z,24.60
2018-08-09T01:09:49.837Z,24.60
2018-08-09T01:12:18.090Z,24.60
2018-08-09T01:14:47.842Z,24.70
2018-08-09T01:17:16.095Z,24.70
2018-08-09T01:19:44.360Z,24.70
2018-08-09T01:22:13.367Z,24.80
2018-08-09T01:24:41.614Z,24.80
2018-08-09T01:27:10.638Z,24.80
2018-08-09T01:29:38.881Z,24.80
2018-08-09T01:32:08.026Z,25.00
2018-08-09T01:34:36.249Z,25.00
2018-08-09T01:37:05.566Z,25.10
2018-08-09T01:39:33.827Z,25.00
2018-08-09T01:42:02.821Z,25.30
2018-08-09T01:44:31.854Z,25.40
2018-08-09T01:47:00.098Z,25.40
2018-08-09T01:49:28.346Z,25.40
2018-08-09T01:51:56.970Z,25.50
2018-08-09T01:54:25.217Z,25.60
2018-08-09T01:56:54.224Z,25.80
2018-08-09T01:59:22.501Z,25.70
2018-08-09T02:01:50.854Z,25.80
2018-08-09T02:04:19.822Z,25.40
2018-08-09T02:06:48.065Z,25.40
2018-08-09T02:09:16.330Z,25.30
2018-08-09T02:11:44.604Z,25.30
2018-08-09T02:14:13.297Z,25.20
2018-08-09T02:16:41.565Z,25.00
2018-08-09T02:19:09.828Z,24.80
2018-08-09T02:21:38.116Z,24.70
2018-08-09T02:24:06.354Z,24.60
2018-08-09T02:26:35.390Z,24.70
2018-08-09T02:29:03.642Z,24.70
2018-08-09T02:31:31.918Z,24.70
2018-08-09T02:34:00.173Z,24.70
2018-08-09T02:36:28.430Z,24.70
2018-08-09T02:38:56.675Z,24.80
2018-08-09T02:41:24.982Z,24.70
2018-08-09T02:43:53.227Z,24.60
2018-08-09T02:46:21.466Z,24.40
2018-08-09T02:48:49.726Z,24.30
2018-08-09T02:51:18.772Z,24.30
2018-08-09T02:53:47.025Z,24.30
2018-08-09T02:56:15.278Z,24.20
2018-08-09T02:58:44.290Z,24.20
2018-08-09T03:01:12.543Z,24.20
2018-08-09T03:03:41.581Z,24.00
2018-08-09T03:06:09.830Z,24.00
2018-08-09T03:08:38.098Z,23.90
2018-08-09T03:11:07.130Z,23.90
2018-08-09T03:13:35.376Z,23.90
2018-08-09T03:16:03.650Z,23.90
2018-08-09T03:18:31.902Z,23.90
2018-08-09T03:21:00.915Z,23.60
2018-08-09T03:23:29.170Z,23.60
2018-08-09T03:25:58.178Z,23.70
2018-08-09T03:28:26.429Z,23.70
2018-08-09T03:30:55.466Z,23.90
2018-08-09T03:33:23.710Z,23.90
2018-08-09T03:35:52.733Z,24.10
2018-08-09T03:38:20.986Z,24.10
2018-08-09T03:40:49.244Z,24.20
2018-08-09T03:43:18.265Z,24.20
2018-08-09T03:45:46.530Z,24.20
2018-08-09T03:48:14.785Z,24.30
2018-08-09T03:50:43.806Z,24.30
2018-08-09T03:53:12.058Z,24.30
2018-08-09T03:55:41.298Z,24.40
2018-08-09T03:58:09.911Z,24.40
2018-08-09T04:00:38.508Z,24.40
2018-08-09T04:03:06.783Z,24.10
2018-08-09T04:05:35.031Z,23.90
2018-08-09T04:08:03.279Z,23.70
2018-08-09T04:10:32.313Z,23.50
2018-08-09T04:13:00.551Z,23.50
2018-08-09T04:15:29.794Z,23.40
2018-08-09T04:17:58.046Z,23.40
2018-08-09T04:20:26.302Z,23.30
2018-08-09T04:22:55.313Z,23.50
2018-08-09T04:25:23.574Z,23.50
2018-08-09T04:27:51.829Z,23.60
2018-08-09T04:30:20.075Z,23.70
2018-08-09T04:32:48.326Z,23.60
2018-08-09T04:35:16.586Z,23.40
2018-08-09T04:37:45.070Z,23.40
2018-08-09T04:40:13.305Z,23.50
2018-08-09T04:42:41.554Z,23.50
2018-08-09T04:45:09.797Z,23.50
2018-08-09T04:47:38.042Z,23.40
2018-08-09T04:50:07.073Z,23.50
2018-08-09T04:52:35.330Z,23.50
2018-08-09T04:55:03.581Z,23.40
2018-08-09T04:57:32.605Z,23.60
2018-08-09T05:00:00.857Z,23.60
2018-08-09T05:02:29.130Z,23.60
2018-08-09T05:04:58.125Z,23.90
2018-08-09T05:07:26.369Z,23.90
2018-08-09T05:09:54.781Z,23.90
2018-08-09T05:12:23.027Z,23.90
2018-08-09T05:14:51.274Z,24.00
2018-08-09T05:17:19.526Z,24.10
2018-08-09T05:19:47.805Z,24.20
2018-08-09T05:22:16.046Z,24.30
2018-08-09T05:24:45.062Z,24.40
2018-08-09T05:27:13.290Z,24.40
2018-08-09T05:29:41.548Z,24.40
2018-08-09T05:32:09.789Z,24.50
2018-08-09T05:34:38.047Z,24.60
2018-08-09T05:37:06.301Z,24.60
2018-08-09T05:39:35.344Z,24.60
2018-08-09T05:42:03.585Z,24.50
2018-08-09T05:44:32.609Z,24.40
2018-08-09T05:47:00.847Z,24.40
2018-08-09T05:49:29.869Z,24.50
2018-08-09T05:51:58.122Z,24.50
2018-08-09T05:54:26.365Z,24.60
2018-08-09T05:56:54.629Z,24.70
2018-08-09T05:59:22.873Z,24.80
2018-08-09T06:01:51.652Z,24.80
2018-08-09T06:04:19.892Z,25.00
2018-08-09T06:06:48.901Z,25.20
2018-08-09T06:09:17.257Z,25.10
2018-08-09T06:11:45.473Z,25.20
2018-08-09T06:14:13.974Z,25.40
2018-08-09T06:16:42.226Z,25.40
2018-08-09T06:19:10.471Z,25.50
2018-08-09T06:21:39.490Z,25.70
2018-08-09T06:24:07.734Z,25.60
2018-08-09T06:26:36.800Z,26.00
2018-08-09T06:29:04.997Z,25.90
2018-08-09T06:31:33.978Z,26.10
2018-08-09T06:34:02.252Z,26.10
2018-08-09T06:36:30.502Z,26.20
2018-08-09T06:38:58.775Z,26.20
2018-08-09T06:41:27.086Z,26.30
2018-08-09T06:43:55.297Z,26.30
2018-08-09T06:46:23.637Z,26.40
2018-08-09T06:48:51.951Z,26.50
2018-08-09T06:51:20.202Z,26.50
2018-08-09T06:53:49.244Z,26.90
2018-08-09T06:56:17.539Z,26.80
2018-08-09T06:58:46.043Z,27.00
2018-08-09T07:01:15.066Z,27.30
2018-08-09T07:03:43.341Z,27.30
2018-08-09T07:06:11.591Z,27.40
2018-08-09T07:08:39.898Z,27.50
2018-08-09T07:11:08.146Z,27.80
2018-08-09T07:13:37.177Z,28.00
2018-08-09T07:16:05.430Z,28.00
2018-08-09T07:18:33.675Z,28.20
2018-08-09T07:21:03.110Z,28.20
2018-08-09T07:23:31.358Z,28.30
2018-08-09T07:26:00.376Z,28.30
2018-08-09T07:28:28.641Z,28.30
2018-08-09T07:30:56.897Z,28.40
2018-08-09T07:33:25.914Z,28.90
2018-08-09T07:35:54.163Z,28.90
2018-08-09T07:38:23.195Z,29.00
2018-08-09T07:40:51.433Z,29.00
2018-08-09T07:43:20.461Z,29.20
2018-08-09T07:45:48.719Z,29.20
2018-08-09T07:48:16.981Z,29.20
2018-08-09T07:50:46.022Z,29.60
2018-08-09T07:53:14.266Z,29.60
2018-08-09T07:55:42.862Z,29.70
2018-08-09T07:58:11.117Z,29.80
2018-08-09T08:00:40.106Z,30.10
2018-08-09T08:03:08.377Z,30.10
2018-08-09T08:05:37.815Z,30.40
2018-08-09T08:08:06.052Z,30.30
2018-08-09T08:10:35.071Z,30.70
2018-08-09T08:13:03.332Z,30.70
2018-08-09T08:15:31.590Z,30.80
2018-08-09T08:18:00.609Z,31.10
2018-08-09T08:20:28.846Z,31.10
2018-08-09T08:22:57.914Z,31.20
2018-08-09T08:25:26.157Z,31.20
2018-08-09T08:27:54.411Z,31.20
2018-08-09T08:30:23.426Z,31.50
2018-08-09T08:32:51.673Z,31.40
2018-08-09T08:35:20.894Z,31.40
2018-08-09T08:37:49.133Z,31.40
2018-08-09T08:40:18.139Z,31.70
2018-08-09T08:42:47.169Z,31.90
2018-08-09T08:45:15.421Z,31.90
2018-08-09T08:47:44.588Z,32.00
2018-08-09T08:50:12.838Z,32.10
2018-08-09T08:52:41.082Z,32.00
2018-08-09T08:55:09.380Z,32.00
2018-08-09T08:57:37.605Z,32.10
2018-08-09T09:00:05.857Z,32.10
2018-08-09T09:02:34.919Z,32.30
2018-08-09T09:05:03.168Z,32.30
2018-08-09T09:07:32.174Z,32.60
2018-08-09T09:10:00.424Z,32.50
2018-08-09T09:12:28.680Z,32.60
2018-08-09T09:14:58.001Z,32.80
2018-08-09T09:17:26.248Z,32.70
2018-08-09T09:19:55.257Z,33.10
2018-08-09T09:22:23.861Z,33.10
2018-08-09T09:24:52.091Z,33.30
2018-08-09T09:27:21.110Z,32.60
2018-08-09T09:29:49.375Z,32.60
2018-08-09T09:32:18.371Z,32.80
2018-08-09T09:34:46.625Z,32.80
2018-08-09T09:37:14.878Z,33.00
2018-08-09T09:39:43.129Z,32.90
2018-08-09T09:42:11.400Z,32.80
2018-08-09T09:44:39.654Z,32.70
2018-08-09T09:47:07.918Z,32.80
2018-08-09T09:49:36.986Z,33.10
2018-08-09T09:52:05.227Z,33.10
2018-08-09T09:54:33.485Z,33.50
2018-08-09T09:57:02.238Z,33.70
2018-08-09T09:59:30.550Z,33.90
2018-08-09T10:01:58.885Z,34.20
2018-08-09T10:04:27.079Z,34.10
2018-08-09T10:06:55.459Z,34.10
2018-08-09T10:09:23.710Z,34.10
2018-08-09T10:11:51.988Z,34.30
2018-08-09T10:14:20.231Z,34.30
2018-08-09T10:16:48.475Z,34.40
2018-08-09T10:19:16.770Z,34.60
2018-08-09T10:21:45.103Z,34.70
2018-08-09T10:24:14.142Z,34.60
2018-08-09T10:26:42.374Z,34.60
2018-08-09T10:29:10.638Z,34.50
2018-08-09T10:31:40.669Z,34.80
2018-08-09T10:34:08.954Z,34.70
2018-08-09T10:36:37.206Z,34.90
2018-08-09T10:39:06.251Z,35.00
2018-08-09T10:41:34.518Z,35.00
2018-08-09T10:44:02.777Z,35.20
2018-08-09T10:46:31.056Z,35.30
2018-08-09T10:48:59.332Z,35.10
2018-08-09T10:51:28.071Z,35.30
2018-08-09T10:53:56.321Z,35.50
2018-08-09T10:56:24.564Z,35.60
2018-08-09T10:58:52.818Z,35.70
2018-08-09T11:01:21.104Z,35.90
2018-08-09T11:03:49.383Z,35.90
2018-08-09T11:06:17.661Z,35.80
2018-08-09T11:08:46.344Z,35.90
2018-08-09T11:11:14.592Z,35.90
2018-08-09T11:13:43.890Z,36.10
2018-08-09T11:16:12.920Z,36.00
2018-08-09T11:18:41.170Z,36.00
2018-08-09T11:21:10.366Z,35.90
2018-08-09T11:23:39.432Z,36.00
2018-08-09T11:26:07.646Z,36.00
2018-08-09T11:28:35.926Z,36.20
2018-08-09T11:31:04.183Z,36.30
2018-08-09T11:33:33.515Z,36.40
2018-08-09T11:36:01.762Z,36.40
2018-08-09T11:38:30.019Z,36.50
2018-08-09T11:40:59.086Z,36.40
2018-08-09T11:43:27.634Z,36.40
2018-08-09T11:45:55.874Z,36.50
2018-08-09T11:48:24.892Z,36.70
2018-08-09T11:50:53.168Z,36.70
2018-08-09T11:53:21.429Z,36.20
2018-08-09T11:55:49.682Z,36.40
2018-08-09T11:58:18.708Z,36.60
2018-08-09T12:00:47.072Z,36.60
2018-08-09T12:03:16.157Z,36.90
2018-08-09T12:05:44.390Z,36.90
2018-08-09T12:08:12.649Z,36.90
2018-08-09T12:10:40.905Z,36.80
2018-08-09T12:13:09.160Z,36.70
2018-08-09T12:15:38.231Z,36.40
2018-08-09T12:18:06.493Z,36.40
2018-08-09T12:20:34.794Z,36.40
2018-08-09T12:23:03.026Z,36.40
2018-08-09T12:25:31.291Z,36.30
2018-08-09T12:27:59.766Z,36.20
2018-08-09T12:30:28.815Z,35.70
2018-08-09T12:32:57.020Z,35.70
2018-08-09T12:35:25.282Z,35.30
2018-08-09T12:37:53.548Z,34.70
2018-08-09T12:40:22.573Z,32.60
2018-08-09T12:42:50.835Z,32.50
2018-08-09T12:45:19.196Z,31.40
2018-08-09T12:47:47.416Z,30.80
2018-08-09T12:50:15.679Z,30.10
2018-08-09T12:52:43.951Z,29.60
2018-08-09T12:55:12.201Z,28.70
2018-08-09T12:57:40.460Z,28.50
2018-08-09T13:00:09.790Z,28.30
2018-08-09T13:02:37.970Z,28.30
2018-08-09T13:05:06.247Z,28.40
2018-08-09T13:07:34.788Z,28.40
2018-08-09T13:10:03.030Z,28.40
2018-08-09T13:12:31.311Z,28.10
2018-08-09T13:14:59.550Z,28.00
2018-08-09T13:17:27.810Z,28.10
2018-08-09T13:19:56.078Z,28.10
2018-08-09T13:22:25.103Z,28.00
2018-08-09T13:24:53.356Z,27.90
2018-08-09T13:27:21.643Z,28.00
2018-08-09T13:29:49.905Z,28.00
2018-08-09T13:32:18.172Z,27.90
2018-08-09T13:34:46.438Z,27.90
2018-08-09T13:37:15.495Z,28.00
2018-08-09T13:39:43.738Z,28.00
2018-08-09T13:42:12.005Z,28.10
2018-08-09T13:44:40.271Z,28.00
2018-08-09T13:47:08.524Z,28.00
2018-08-09T13:49:37.558Z,28.00
2018-08-09T13:52:05.814Z,28.00
2018-08-09T13:54:34.227Z,28.00
2018-08-09T13:57:02.499Z,28.10
2018-08-09T13:59:30.752Z,28.00
2018-08-09T14:01:59.063Z,28.00
2018-08-09T14:04:27.344Z,28.10
2018-08-09T14:06:55.654Z,28.10
2018-08-09T14:09:24.691Z,28.10
2018-08-09T14:11:52.966Z,28.10
2018-08-09T14:14:22.030Z,28.30
2018-08-09T14:16:50.312Z,28.30
2018-08-09T14:19:18.585Z,28.50
2018-08-09T14:21:47.085Z,28.70
2018-08-09T14:24:15.328Z,28.90
2018-08-09T14:26:43.595Z,29.20
2018-08-09T14:29:11.996Z,29.20
2018-08-09T14:31:40.260Z,28.90
2018-08-09T14:34:09.271Z,28.60
2018-08-09T14:36:37.517Z,28.50
2018-08-09T14:39:06.544Z,28.40
2018-08-09T14:41:35.123Z,28.40
2018-08-09T14:44:03.383Z,28.50
2018-08-09T14:46:31.653Z,28.50
2018-08-09T14:48:59.926Z,28.60
2018-08-09T14:51:28.191Z,28.70
2018-08-09T14:53:57.207Z,28.70
2018-08-09T14:56:25.468Z,28.60
2018-08-09T14:58:54.471Z,28.70
2018-08-09T15:01:22.740Z,28.70
2018-08-09T15:03:50.994Z,28.70
2018-08-09T15:06:20.233Z,28.90
2018-08-09T15:08:48.481Z,28.90
2018-08-09T15:11:17.497Z,29.00
2018-08-09T15:13:45.871Z,29.00
2018-08-09T15:16:14.123Z,29.00
2018-08-09T15:18:43.154Z,28.80
2018-08-09T15:21:11.682Z,28.80
2018-08-09T15:23:40.715Z,28.50
2018-08-09T15:26:08.994Z,28.50
2018-08-09T15:28:37.257Z,28.50
2018-08-09T15:31:05.494Z,28.40
2018-08-09T15:33:33.722Z,28.30
2018-08-09T15:36:02.311Z,28.30
2018-08-09T15:38:30.556Z,28.60
2018-08-09T15:40:58.805Z,28.70
2018-08-09T15:43:27.129Z,28.80
2018-08-09T15:45:55.390Z,28.70
2018-08-09T15:48:23.646Z,28.60
2018-08-09T15:50:52.679Z,27.90
2018-08-09T15:53:20.973Z,27.90
2018-08-09T15:55:49.243Z,27.90
2018-08-09T15:58:17.506Z,28.10
2018-08-09T16:00:46.079Z,28.10
2018-08-09T16:03:14.347Z,28.00
2018-08-09T16:05:43.282Z,28.30
2018-08-09T16:08:11.820Z,28.10
2018-08-09T16:10:40.071Z,28.10
2018-08-09T16:13:09.139Z,28.00
2018-08-09T16:15:37.387Z,28.00
2018-08-09T16:18:05.956Z,27.70
2018-08-09T16:20:34.233Z,27.70
2018-08-09T16:23:02.469Z,27.80
2018-08-09T16:25:31.518Z,27.80
2018-08-09T16:27:59.793Z,27.80
2018-08-09T16:30:28.854Z,28.00
2018-08-09T16:32:57.325Z,28.00
2018-08-09T16:35:25.585Z,28.10
2018-08-09T16:37:54.608Z,28.30
2018-08-09T16:40:22.893Z,28.30
2018-08-09T16:42:51.963Z,28.50
2018-08-09T16:45:20.247Z,28.40
2018-08-09T16:47:48.513Z,28.60
2018-08-09T16:50:17.089Z,28.70
2018-08-09T16:52:46.189Z,28.60
2018-08-09T16:55:14.448Z,28.50
2018-08-09T16:57:43.494Z,28.10
2018-08-09T17:00:11.828Z,28.10
2018-08-09T17:02:41.161Z,27.70
2018-08-09T17:05:09.427Z,27.70
2018-08-09T17:07:37.670Z,27.80
2018-08-09T17:10:05.950Z,27.80
2018-08-09T17:12:34.966Z,28.00
2018-08-09T17:15:03.512Z,28.00
2018-08-09T17:17:32.535Z,27.40
2018-08-09T17:20:01.998Z,27.40
2018-08-09T17:22:30.283Z,27.10
2018-08-09T17:24:59.702Z,26.90
2018-08-09T17:27:28.005Z,26.90
2018-08-09T17:29:56.259Z,26.90
2018-08-09T17:32:24.506Z,26.80
2018-08-09T17:34:52.761Z,26.70
2018-08-09T17:37:21.073Z,26.80
2018-08-09T17:39:50.055Z,26.80
2018-08-09T17:42:19.092Z,26.60
2018-08-09T17:44:47.331Z,26.60
2018-08-09T17:47:15.594Z,26.60
2018-08-09T17:49:44.654Z,26.80
2018-08-09T17:52:12.956Z,26.80
2018-08-09T17:54:41.179Z,26.70
2018-08-09T17:57:09.446Z,26.70
2018-08-09T17:59:37.710Z,26.70
2018-08-09T18:02:06.095Z,26.80
2018-08-09T18:04:34.330Z,26.50
2018-08-09T18:07:02.622Z,26.60
2018-08-09T18:09:31.838Z,26.50
2018-08-09T18:12:00.082Z,26.50
2018-08-09T18:14:29.152Z,26.50
2018-08-09T18:16:57.390Z,26.50
2018-08-09T18:19:25.645Z,26.50
2018-08-09T18:21:53.902Z,26.40
2018-08-09T18:24:22.918Z,26.30
2018-08-09T18:26:51.201Z,26.30
2018-08-09T18:29:19.448Z,26.40
2018-08-09T18:31:47.954Z,26.60
2018-08-09T18:34:16.206Z,26.60
2018-08-09T18:36:45.220Z,26.60
2018-08-09T18:39:13.475Z,26.60
2018-08-09T18:41:42.510Z,26.90
2018-08-09T18:44:10.961Z,26.90
2018-08-09T18:46:39.210Z,26.80
2018-08-09T18:49:07.461Z,26.60
2018-08-09T18:51:35.744Z,26.50
2018-08-09T18:54:03.997Z,26.40
2018-08-09T18:56:32.496Z,26.10
2018-08-09T18:59:00.766Z,26.10
2018-08-09T19:01:29.030Z,26.20
2018-08-09T19:03:57.283Z,26.40
2018-08-09T19:06:25.519Z,26.70
2018-08-09T19:08:54.603Z,26.90
2018-08-09T19:11:22.848Z,26.90
2018-08-09T19:13:51.134Z,27.00
2018-08-09T19:16:19.527Z,27.00
2018-08-09T19:18:47.782Z,27.00
2018-08-09T19:21:16.052Z,27.00
2018-08-09T19:23:44.296Z,27.20
2018-08-09T19:26:13.582Z,27.00
2018-08-09T19:28:42.596Z,27.00
2018-08-09T19:31:10.849Z,27.00
2018-08-09T19:33:39.108Z,26.70
2018-08-09T19:36:07.142Z,26.60
2018-08-09T19:38:41.408Z,26.60
2018-08-09T19:41:15.586Z,26.60
2018-08-09T19:43:49.807Z,26.50
2018-08-09T19:46:24.056Z,26.30
2018-08-09T19:48:58.290Z,26.30
2018-08-09T19:51:32.542Z,26.10
2018-08-09T19:54:07.430Z,26.00
2018-08-09T19:56:41.553Z,26.00
2018-08-09T19:59:15.758Z,25.80
2018-08-09T20:01:49.869Z,25.90
2018-08-09T20:04:24.095Z,25.90
2018-08-09T20:06:58.342Z,25.80
2018-08-09T20:09:32.588Z,25.50
2018-08-09T20:12:06.976Z,25.60
2018-08-09T20:14:41.038Z,25.60
2018-08-09T20:17:15.106Z,25.80
2018-08-09T20:19:49.346Z,25.90
2018-08-09T20:22:23.595Z,25.70
2018-08-09T20:24:51.849Z,25.70
2018-08-09T20:27:20.116Z,25.50
2018-08-09T20:29:49.204Z,25.50
2018-08-09T20:32:17.372Z,25.50
2018-08-09T20:34:46.385Z,25.60
2018-08-09T20:37:14.618Z,25.60
2018-08-09T20:39:42.878Z,25.40
2018-08-09T20:42:11.941Z,25.70
2018-08-09T20:44:40.191Z,25.70
2018-08-09T20:47:09.231Z,25.90
2018-08-09T20:49:37.526Z,25.90
2018-08-09T20:52:05.694Z,25.90
2018-08-09T20:54:33.958Z,25.90
2018-08-09T20:57:02.207Z,25.90
2018-08-09T20:59:30.455Z,26.00
2018-08-09T21:01:59.501Z,26.00
2018-08-09T21:04:27.729Z,26.00
2018-08-09T21:06:55.977Z,26.00
2018-08-09T21:09:24.245Z,25.90
2018-08-09T21:11:52.500Z,25.90
2018-08-09T21:14:20.733Z,25.80
2018-08-09T21:16:48.987Z,25.60
2018-08-09T21:19:17.989Z,25.60
2018-08-09T21:21:46.230Z,25.60
2018-08-09T21:24:14.507Z,25.50
2018-08-09T21:26:42.741Z,25.60
2018-08-09T21:29:11.012Z,25.80
2018-08-09T21:31:39.242Z,25.80
2018-08-09T21:34:08.258Z,25.80
2018-08-09T21:36:36.498Z,25.70
2018-08-09T21:39:04.746Z,25.90
2018-08-09T21:41:32.986Z,25.80
2018-08-09T21:44:01.242Z,25.80
2018-08-09T21:46:30.272Z,25.40
2018-08-09T21:48:58.502Z,25.40
2018-08-09T21:51:27.521Z,25.40
2018-08-09T21:53:55.766Z,25.40
2018-08-09T21:56:24.805Z,25.20
2018-08-09T21:58:53.057Z,25.20
2018-08-09T22:01:21.311Z,25.20
2018-08-09T22:03:49.557Z,25.00
2018-08-09T22:06:35.509Z,24.80
2018-08-09T22:09:18.647Z,24.60
2018-08-09T22:12:01.767Z,24.00
2018-08-09T22:14:36.369Z,22.90
2018-08-09T22:20:16.506Z,22.60
2018-08-09T22:22:44.751Z,22.30
2018-08-09T22:25:13.004Z,22.30
2018-08-09T22:27:41.239Z,22.60
2018-08-09T22:30:09.474Z,22.60
2018-08-09T22:32:37.722Z,22.60
2018-08-09T22:35:05.971Z,22.70
2018-08-09T22:37:34.987Z,23.10
2018-08-09T22:40:03.226Z,23.10
2018-08-09T22:42:31.473Z,23.30
2018-08-09T22:44:59.781Z,23.50
2018-08-09T22:47:27.994Z,23.70
2018-08-09T22:49:56.230Z,23.80
2018-08-09T22:52:25.251Z,23.80
2018-08-09T22:54:53.498Z,23.80
2018-08-09T22:57:22.551Z,23.80
2018-08-09T22:59:50.801Z,23.80
2018-08-09T23:02:19.064Z,23.70
2018-08-09T23:04:47.307Z,23.60
2018-08-09T23:07:15.563Z,23.60
2018-08-09T23:09:43.801Z,23.70
2018-08-09T23:12:12.054Z,23.30
2018-08-09T23:14:41.078Z,23.30
2018-08-09T23:17:09.334Z,23.20
2018-08-09T23:19:37.582Z,23.40
2018-08-09T23:22:05.810Z,23.40
2018-08-09T23:24:34.073Z,23.20
2018-08-09T23:27:02.309Z,23.10
2018-08-09T23:29:31.343Z,23.00
2018-08-09T23:31:59.578Z,23.00
2018-08-09T23:34:28.601Z,22.50
2018-08-09T23:36:56.846Z,22.50
2018-08-09T23:39:25.863Z,22.00
2018-08-09T23:41:54.113Z,22.00
2018-08-09T23:44:23.114Z,22.10
2018-08-09T23:46:51.368Z,22.00
2018-08-09T23:49:19.602Z,22.00
2018-08-09T23:51:48.636Z,22.10
2018-08-09T23:54:16.877Z,22.10
2018-08-09T23:56:45.905Z,22.30
2018-08-09T23:59:14.137Z,22.30
